Time;durP1;ratioP1;P1;durP2;ratioP2;P2;SDS_P1;SDS_P2;PMS_P1;PMS_P2;Temp;Humidity;BMP_temperature;BMP_pressure;BME280_temperature;BME280_humidity;BME280_pressure;Samples;Min_cycle;Max_cycle;Signal;HPM_P1;HPM_P2
2021/04/04 00:00:56;;;;;;;3.71;1.51;;;;;;;4.70;55.41;100098.53;2014890;77;22311;-69
2021/04/04 00:03:58;;;;;;;4.35;1.44;;;;;;;4.57;56.95;100100.69;2016205;79;20361;-69
2021/04/04 00:07:00;;;;;;;3.70;1.56;;;;;;;4.35;58.42;100101.72;2015600;80;20339;-67
2021/04/04 00:10:04;;;;;;;5.79;1.39;;;;;;;4.19;59.19;100100.34;2016630;79;20532;-67
2021/04/04 00:13:06;;;;;;;3.33;1.36;;;;;;;4.10;59.68;100092.31;2015624;80;20345;-66
2021/04/04 00:16:09;;;;;;;2.81;1.40;;;;;;;3.97;60.19;100090.19;2015301;77;20357;-66
2021/04/04 00:19:11;;;;;;;4.38;1.49;;;;;;;3.80;60.92;100090.50;2016345;79;20346;-66
2021/04/04 00:22:13;;;;;;;6.66;1.44;;;;;;;3.74;61.42;100091.97;2016332;80;20317;-67
2021/04/04 00:25:16;;;;;;;2.70;1.26;;;;;;;3.64;61.84;100090.78;2015648;80;20879;-67
2021/04/04 00:28:18;;;;;;;2.06;1.20;;;;;;;3.53;62.51;100090.41;2015944;79;20333;-66
2021/04/04 00:31:19;;;;;;;4.78;1.50;;;;;;;3.44;62.68;100089.25;2016080;78;20885;-66
2021/04/04 00:34:22;;;;;;;3.53;1.81;;;;;;;3.38;63.10;100091.56;2015195;80;20733;-66
2021/04/04 00:37:24;;;;;;;4.16;1.39;;;;;;;3.28;63.21;100087.81;2014365;80;20317;-66
2021/04/04 00:40:31;;;;;;;3.44;1.39;;;;;;;3.19;63.46;100085.78;2014335;80;20325;-67
2021/04/04 00:43:32;;;;;;;5.19;1.49;;;;;;;3.07;63.84;100087.91;2013993;80;20444;-66
2021/04/04 00:46:34;;;;;;;3.16;1.84;;;;;;;2.93;64.31;100089.97;2012656;76;20910;-66
2021/04/04 00:49:36;;;;;;;4.29;2.00;;;;;;;2.84;64.38;100081.91;2014856;80;20339;-66
2021/04/04 00:52:38;;;;;;;5.71;1.66;;;;;;;2.78;64.60;100078.25;2013932;79;20366;-66
2021/04/04 00:55:40;;;;;;;3.50;1.73;;;;;;;2.67;64.78;100082.97;2014055;80;20355;-66
2021/04/04 00:58:42;;;;;;;4.57;1.71;;;;;;;2.64;65.41;100081.16;2013713;79;20334;-66
2021/04/04 01:01:45;;;;;;;3.30;1.38;;;;;;;2.59;65.31;100079.25;2013630;79;27044;-66
2021/04/04 01:04:49;;;;;;;4.81;1.76;;;;;;;2.57;65.32;100076.63;2013766;80;20309;-66
2021/04/04 01:07:55;;;;;;;4.53;1.41;;;;;;;2.52;65.19;100075.59;2014783;79;20365;-66
2021/04/04 01:10:57;;;;;;;2.63;1.61;;;;;;;2.43;65.52;100085.47;2013773;80;20309;-66
2021/04/04 01:14:13;;;;;;;2.92;1.50;;;;;;;2.34;65.59;100083.44;2015060;80;20321;-66
2021/04/04 01:17:18;;;;;;;3.42;1.70;;;;;;;2.07;66.63;100075.50;2012670;76;23340;-66
2021/04/04 01:20:24;;;;;;;5.18;1.84;;;;;;;2.02;67.16;100073.59;2014782;80;20351;-66
2021/04/04 01:23:39;;;;;;;2.08;1.19;;;;;;;1.88;67.30;100078.13;2014152;79;20329;-66
2021/04/04 01:26:59;;;;;;;4.14;1.44;;;;;;;1.76;67.48;100075.06;2014336;79;20321;-66
2021/04/04 01:30:01;;;;;;;5.03;1.39;;;;;;;1.72;67.45;100080.88;2014964;79;20342;-66
2021/04/04 01:33:04;;;;;;;3.81;1.46;;;;;;;1.64;67.59;100084.81;2008398;76;20310;-66
2021/04/04 01:36:09;;;;;;;3.31;1.41;;;;;;;1.62;67.70;100087.31;2010638;79;20298;-66
2021/04/04 01:39:13;;;;;;;5.46;1.42;;;;;;;1.56;67.70;100081.03;2010848;80;20702;-66
2021/04/04 01:42:17;;;;;;;4.95;1.85;;;;;;;1.49;68.11;100085.03;2010179;80;20322;-67
2021/04/04 01:45:21;;;;;;;3.14;1.20;;;;;;;1.48;67.93;100090.97;2009571;76;20350;-66
2021/04/04 01:48:22;;;;;;;4.43;1.44;;;;;;;1.49;67.84;100079.91;2011036;80;20443;-67
2021/04/04 01:51:25;;;;;;;1.99;1.10;;;;;;;1.42;67.88;100085.56;2010566;79;20306;-66
2021/04/04 01:54:30;;;;;;;2.30;1.14;;;;;;;1.38;67.70;100088.78;2010334;80;20349;-66
2021/04/04 01:57:33;;;;;;;2.90;1.41;;;;;;;1.32;67.76;100080.88;2010799;80;20338;-66
2021/04/04 02:00:37;;;;;;;4.54;1.40;;;;;;;1.26;67.79;100076.38;2010763;78;20804;-66
2021/04/04 02:03:41;;;;;;;5.26;1.48;;;;;;;1.18;67.84;100088.81;2016867;80;20745;-66
2021/04/04 02:06:43;;;;;;;3.88;1.46;;;;;;;1.12;68.10;100078.31;2017528;80;20309;-66
2021/04/04 02:09:46;;;;;;;3.69;1.38;;;;;;;1.10;68.51;100085.06;2018050;80;20361;-66
2021/04/04 02:12:49;;;;;;;4.00;1.38;;;;;;;1.08;68.36;100075.56;2017894;80;20339;-66
2021/04/04 02:15:55;;;;;;;5.30;1.89;;;;;;;1.04;68.39;100073.66;2016388;76;20640;-67
2021/04/04 02:18:57;;;;;;;2.01;1.38;;;;;;;0.98;68.53;100078.50;2018432;79;20297;-66
2021/04/04 02:21:59;;;;;;;4.86;1.51;;;;;;;0.84;69.12;100076.19;2031790;79;20357;-66
2021/04/04 02:25:01;;;;;;;2.45;1.48;;;;;;;0.77;69.58;100075.88;2018173;80;20334;-66
2021/04/04 02:28:04;;;;;;;3.66;1.34;;;;;;;0.64;70.01;100066.75;2018091;80;20325;-66
2021/04/04 02:31:10;;;;;;;3.10;1.40;;;;;;;0.65;70.22;100072.75;2017394;77;20565;-66
2021/04/04 02:34:21;;;;;;;5.70;1.30;;;;;;;0.62;70.24;100070.06;2017829;80;20347;-66
2021/04/04 02:37:23;;;;;;;5.65;1.39;;;;;;;0.55;70.44;100063.78;2017775;79;20831;-66
2021/04/04 02:40:26;;;;;;;3.04;1.20;;;;;;;0.58;70.55;100069.03;2018307;80;20321;-66
2021/04/04 02:43:30;;;;;;;2.99;1.42;;;;;;;0.53;70.74;100066.25;2017617;80;21325;-66
2021/04/04 02:46:32;;;;;;;3.69;1.58;;;;;;;0.47;70.92;100068.53;2016828;76;20325;-66
2021/04/04 02:49:37;;;;;;;2.56;1.30;;;;;;;0.46;70.83;100060.81;2017737;80;20329;-66
2021/04/04 02:52:42;;;;;;;6.50;1.45;;;;;;;0.43;71.02;100069.22;2018779;80;20341;-66
2021/04/04 02:55:47;;;;;;;2.80;1.24;;;;;;;0.44;70.91;100072.63;2016788;79;20814;-66
2021/04/04 02:58:58;;;;;;;3.51;1.45;;;;;;;0.51;71.10;100065.31;2017652;79;20332;-66
2021/04/04 03:02:03;;;;;;;3.81;1.69;;;;;;;0.52;71.12;100061.06;2016719;77;20371;-66
2021/04/04 03:05:08;;;;;;;4.63;1.66;;;;;;;0.48;71.14;100066.84;2016867;80;20335;-66
2021/04/04 03:08:11;;;;;;;4.50;1.80;;;;;;;0.42;70.92;100066.59;2017011;80;20345;-66
2021/04/04 03:11:14;;;;;;;5.00;1.95;;;;;;;0.33;71.11;100058.47;2016504;79;20893;-66
2021/04/04 03:14:17;;;;;;;2.47;1.59;;;;;;;0.29;71.23;100062.56;2015777;80;20313;-66
2021/04/04 03:17:19;;;;;;;4.25;1.36;;;;;;;0.29;71.10;100071.09;2015584;77;20398;-66
2021/04/04 03:20:22;;;;;;;4.19;1.56;;;;;;;0.30;71.24;100066.88;2016996;80;20349;-66
2021/04/04 03:23:25;;;;;;;4.35;1.84;;;;;;;0.26;71.22;100070.97;2015619;79;20325;-66
2021/04/04 03:26:28;;;;;;;3.58;2.49;;;;;;;0.18;71.32;100074.84;2019817;80;20378;-66
2021/04/04 03:29:30;;;;;;;4.72;1.64;;;;;;;0.07;72.00;100086.22;2016546;80;20685;-65
2021/04/04 03:32:36;;;;;;;3.21;1.70;;;;;;;0.07;72.57;100086.22;2015289;79;20398;-66
2021/04/04 03:35:39;;;;;;;3.30;1.69;;;;;;;-0.02;72.41;100080.66;2016402;79;20331;-66
2021/04/04 03:38:41;;;;;;;3.03;1.34;;;;;;;-0.03;72.13;100077.22;2016726;80;20301;-65
2021/04/04 03:41:44;;;;;;;4.50;1.91;;;;;;;-0.05;72.16;100076.28;2016412;79;20430;-65
2021/04/04 03:44:47;;;;;;;4.29;1.51;;;;;;;-0.08;72.17;100076.13;2016869;80;20349;-65
2021/04/04 03:47:50;;;;;;;2.83;1.95;;;;;;;-0.12;72.01;100076.78;2016129;77;20358;-66
2021/04/04 03:50:53;;;;;;;3.64;1.84;;;;;;;-0.13;71.87;100076.72;2016262;80;20367;-65
2021/04/04 03:53:57;;;;;;;5.78;1.77;;;;;;;-0.11;71.78;100073.44;2015933;80;20325;-65
2021/04/04 03:56:59;;;;;;;4.22;2.13;;;;;;;-0.10;72.02;100080.28;2017050;80;20338;-65
2021/04/04 04:00:02;;;;;;;3.22;2.05;;;;;;;-0.16;72.35;100074.91;2016124;80;20310;-66
2021/04/04 04:03:07;;;;;;;4.76;1.60;;;;;;;-0.19;72.39;100079.81;2015995;77;26015;-66
2021/04/04 04:06:09;;;;;;;4.45;1.91;;;;;;;-0.23;72.18;100083.03;2016551;79;20328;-65
2021/04/04 04:09:13;;;;;;;3.74;1.79;;;;;;;-0.28;72.00;100081.94;2016437;79;20374;-65
2021/04/04 04:12:16;;;;;;;4.81;2.46;;;;;;;-0.36;72.52;100080.66;2016824;79;20326;-65
2021/04/04 04:15:18;;;;;;;3.95;1.94;;;;;;;-0.40;72.57;100077.09;2015044;77;28360;-65
2021/04/04 04:18:20;;;;;;;5.30;2.05;;;;;;;-0.38;72.75;100074.59;2016486;80;20321;-65
2021/04/04 04:21:22;;;;;;;3.60;1.74;;;;;;;-0.37;72.52;100073.81;2015626;80;20353;-65
2021/04/04 04:24:25;;;;;;;3.85;2.03;;;;;;;-0.42;72.55;100073.59;2016722;80;20363;-65
2021/04/04 04:27:27;;;;;;;5.28;1.58;;;;;;;-0.43;72.46;100074.38;2016540;80;20326;-65
2021/04/04 04:30:28;;;;;;;3.92;1.56;;;;;;;-0.46;72.85;100071.69;2016117;76;22562;-65
2021/04/04 04:33:31;;;;;;;4.40;2.17;;;;;;;-0.50;73.06;100079.13;2015796;80;20786;-66
2021/04/04 04:36:33;;;;;;;3.83;1.95;;;;;;;-0.53;72.86;100072.19;2016296;79;20310;-65
2021/04/04 04:39:37;;;;;;;3.59;2.03;;;;;;;-0.53;73.00;100073.88;2016210;80;20358;-65
2021/04/04 04:42:43;;;;;;;6.24;1.61;;;;;;;-0.52;72.96;100079.03;2016851;80;20321;-65
2021/04/04 04:45:45;;;;;;;4.25;1.74;;;;;;;-0.55;73.01;100078.84;2014762;78;22976;-65
2021/04/04 04:48:47;;;;;;;3.97;1.66;;;;;;;-0.59;73.17;100074.41;2015876;80;20329;-65
2021/04/04 04:51:49;;;;;;;3.60;1.80;;;;;;;-0.64;73.24;100074.19;2016593;80;20974;-65
2021/04/04 04:54:51;;;;;;;4.00;1.74;;;;;;;-0.68;73.29;100079.06;2015784;80;20317;-65
2021/04/04 04:57:58;;;;;;;5.13;1.44;;;;;;;-0.69;73.52;100087.50;2016686;80;20955;-65
2021/04/04 05:01:07;;;;;;;3.17;1.83;;;;;;;-0.73;73.50;100088.13;2015339;77;22098;-65
2021/04/04 05:04:09;;;;;;;7.20;1.93;;;;;;;-0.74;73.49;100079.59;2015268;80;20324;-65
2021/04/04 05:07:11;;;;;;;3.25;1.65;;;;;;;-0.71;73.26;100086.56;2016416;79;20700;-65
2021/04/04 05:10:14;;;;;;;2.70;1.40;;;;;;;-0.69;73.02;100087.50;2015863;80;20729;-65
2021/04/04 05:13:17;;;;;;;3.58;1.36;;;;;;;-0.67;73.17;100083.34;2016169;80;20335;-65
2021/04/04 05:16:19;;;;;;;3.51;1.49;;;;;;;-0.67;73.28;100075.72;2014800;78;20514;-65
2021/04/04 05:19:22;;;;;;;4.30;1.60;;;;;;;-0.68;73.60;100082.47;2016550;80;21070;-66
2021/04/04 05:22:24;;;;;;;2.69;1.27;;;;;;;-0.70;73.78;100078.97;2015816;80;20391;-65
2021/04/04 05:25:27;;;;;;;4.59;1.71;;;;;;;-0.71;74.05;100084.00;2015418;80;20644;-65
2021/04/04 05:28:28;;;;;;;2.22;1.42;;;;;;;-0.71;74.25;100086.56;2015781;79;20854;-65
2021/04/04 05:31:31;;;;;;;4.15;1.52;;;;;;;-0.74;74.48;100082.16;2015478;76;20915;-65
2021/04/04 05:34:38;;;;;;;4.49;1.40;;;;;;;-0.74;74.77;100084.69;2015129;80;20332;-65
2021/04/04 05:37:42;;;;;;;3.53;2.00;;;;;;;-0.63;74.44;100088.69;2015618;80;20336;-65
2021/04/04 05:40:45;;;;;;;2.50;1.49;;;;;;;-0.48;74.47;100087.72;2015734;80;20337;-65
2021/04/04 05:43:55;;;;;;;5.88;1.64;;;;;;;-0.45;74.41;100086.19;2015795;79;20881;-65
2021/04/04 05:47:29;;;;;;;4.29;1.84;;;;;;;-0.38;74.37;100085.69;2015376;77;20331;-65
2021/04/04 05:50:46;;;;;;;6.80;1.73;;;;;;;-0.34;75.05;100087.63;2019956;80;20321;-66
2021/04/04 05:54:00;;;;;;;3.63;1.88;;;;;;;-0.26;75.00;100080.34;2015953;80;20309;-65
2021/04/04 05:57:17;;;;;;;4.28;2.09;;;;;;;-0.22;74.96;100079.69;2015712;80;20334;-66
2021/04/04 06:00:20;;;;;;;2.38;1.48;;;;;;;-0.11;74.97;100078.53;2014520;77;20313;-66
2021/04/04 06:03:47;;;;;;;5.34;1.77;;;;;;;-0.06;75.02;100074.53;2015056;80;20341;-66
2021/04/04 06:07:02;;;;;;;4.70;1.90;;;;;;;0.07;75.05;100085.34;2016112;79;20339;-65
2021/04/04 06:10:17;;;;;;;4.10;1.71;;;;;;;0.18;74.99;100090.16;2015287;79;20314;-67
2021/04/04 06:13:37;;;;;;;4.01;1.83;;;;;;;0.37;74.90;100086.81;2013992;79;21152;-66
2021/04/04 06:17:19;;;;;;;3.49;1.63;;;;;;;0.88;74.10;100090.00;2013333;77;22191;-67
2021/04/04 06:20:41;;;;;;;5.03;2.38;;;;;;;1.36;72.83;100085.31;2023734;80;20368;-67
2021/04/04 06:24:07;;;;;;;3.08;1.63;;;;;;;1.65;71.58;100091.69;2013412;80;20324;-67
2021/04/04 06:27:10;;;;;;;2.36;1.51;;;;;;;2.13;70.10;100095.38;2016247;79;20369;-67
2021/04/04 06:34:19;;;;;;;3.69;1.79;;;;;;;3.45;65.69;100091.84;2014011;79;20362;-67
2021/04/04 06:37:43;;;;;;;7.25;1.61;;;;;;;3.99;63.53;100088.53;2013769;79;20325;-68
2021/04/04 06:41:04;;;;;;;3.76;2.45;;;;;;;4.53;61.83;100095.44;2013940;79;20333;-67
2021/04/04 06:44:43;;;;;;;4.47;1.73;;;;;;;5.02;60.19;100096.91;2013454;80;20392;-67
2021/04/04 06:48:04;;;;;;;3.61;2.00;;;;;;;5.36;58.25;100093.56;2013686;76;20325;-68
2021/04/04 06:51:42;;;;;;;3.29;1.63;;;;;;;5.56;58.71;100090.66;2013840;80;20208;-71
2021/04/04 06:55:07;;;;;;;3.20;1.90;;;;;;;5.71;58.14;100089.38;2014502;80;20534;-71
2021/04/04 06:58:30;;;;;;;3.09;1.66;;;;;;;5.83;57.73;100090.53;2015199;80;20309;-72
2021/04/04 07:01:36;;;;;;;3.30;2.09;;;;;;;5.94;57.04;100084.88;2013855;76;20372;-73
2021/04/04 07:04:54;;;;;;;4.80;1.86;;;;;;;6.11;57.44;100090.44;2015433;79;20342;-73
2021/04/04 07:08:14;;;;;;;5.03;1.90;;;;;;;6.23;56.58;100084.69;2015221;80;20371;-73
2021/04/04 07:11:32;;;;;;;4.56;1.86;;;;;;;6.47;56.36;100076.69;2015189;79;20333;-72
2021/04/04 07:14:56;;;;;;;6.06;2.75;;;;;;;6.88;56.63;100082.75;2013706;79;20357;-72
2021/04/04 07:18:19;;;;;;;6.13;2.30;;;;;;;7.19;54.98;100081.69;2013084;77;21630;-72
2021/04/04 07:21:51;;;;;;;6.53;3.10;;;;;;;7.49;53.90;100082.25;2013952;80;20259;-70
2021/04/04 07:25:00;;;;;;;6.50;2.63;;;;;;;7.78;52.90;100077.66;2014922;80;20576;-71
2021/04/04 07:28:30;;;;;;;9.40;2.88;;;;;;;8.12;52.40;100084.28;2015063;80;20918;-71
2021/04/04 07:31:41;;;;;;;6.20;2.63;;;;;;;8.47;52.02;100081.41;2014247;77;20663;-73
2021/04/04 07:35:07;;;;;;;6.06;2.67;;;;;;;8.62;52.24;100081.63;2014994;80;20201;-70
2021/04/04 07:38:18;;;;;;;8.96;2.92;;;;;;;9.01;51.93;100077.84;2016476;80;20193;-72
2021/04/04 07:41:50;;;;;;;6.53;2.97;;;;;;;9.45;50.36;100077.50;2014370;80;20713;-75
2021/04/04 07:45:27;;;;;;;7.36;3.29;;;;;;;9.47;48.77;100063.69;2014595;80;20287;-70
2021/04/04 07:48:50;;;;;;;9.14;3.35;;;;;;;9.69;48.52;100069.97;2011413;80;20184;-71
2021/04/04 07:51:55;;;;;;;8.98;3.51;;;;;;;10.17;48.70;100064.34;2011900;80;20168;-71
2021/04/04 07:55:18;;;;;;;12.32;4.30;;;;;;;10.26;46.79;100061.88;2014639;80;20188;-73
2021/04/04 07:58:54;;;;;;;6.28;3.10;;;;;;;10.46;47.76;100062.03;2011907;80;20227;-72
2021/04/04 08:01:55;;;;;;;8.81;3.53;;;;;;;10.90;47.58;100058.81;2014360;77;27035;-75
2021/04/04 08:05:05;;;;;;;11.84;3.25;;;;;;;11.08;46.29;100060.63;2015498;80;20665;-70
2021/04/04 08:08:11;;;;;;;9.90;4.09;;;;;;;11.49;45.73;100061.66;2019450;80;20223;-71
2021/04/04 08:11:35;;;;;;;13.07;3.95;;;;;;;11.74;45.32;100059.09;2016475;80;20168;-71
2021/04/04 08:14:50;;;;;;;13.68;4.47;;;;;;;11.69;44.42;100064.28;2016311;80;20184;-72
2021/04/04 08:17:52;;;;;;;12.14;3.83;;;;;;;12.02;44.54;100060.88;2014820;76;20873;-70
2021/04/04 08:20:59;;;;;;;12.60;4.63;;;;;;;12.17;43.61;100057.41;2016475;79;20184;-72
2021/04/04 08:24:07;;;;;;;16.25;6.04;;;;;;;12.20;43.91;100057.41;2016216;79;20233;-71
2021/04/04 08:27:21;;;;;;;17.31;5.81;;;;;;;12.07;42.73;100051.34;2015785;80;20679;-70
2021/04/04 08:30:39;;;;;;;12.91;5.56;;;;;;;12.13;42.70;100053.06;2014365;76;71001;-65
2021/04/04 08:33:47;;;;;;;16.28;5.21;;;;;;;12.48;43.32;100055.66;2015426;79;20199;-67
2021/04/04 08:36:59;;;;;;;15.56;6.49;;;;;;;12.85;42.92;100058.19;2015676;80;20176;-66
2021/04/04 08:40:06;;;;;;;20.42;6.40;;;;;;;13.00;42.51;100047.69;2016045;79;20189;-66
2021/04/04 08:43:11;;;;;;;16.94;6.29;;;;;;;13.14;41.83;100056.34;2016599;80;20223;-68
2021/04/04 08:46:32;;;;;;;19.46;6.91;;;;;;;13.11;41.66;100047.69;2014899;77;21239;-69
2021/04/04 08:49:35;;;;;;;17.04;6.03;;;;;;;13.24;41.69;100036.31;2016328;80;20213;-68
2021/04/04 08:52:54;;;;;;;17.16;6.10;;;;;;;13.45;41.18;100038.81;2015719;80;20164;-69
2021/04/04 08:55:56;;;;;;;12.93;5.78;;;;;;;13.76;41.30;100025.59;2015164;79;20253;-68
2021/04/04 08:59:02;;;;;;;14.90;6.09;;;;;;;13.79;39.56;100023.81;2015402;80;20530;-69
2021/04/04 09:02:07;;;;;;;12.89;5.89;;;;;;;14.06;39.97;100020.13;2015376;76;20236;-69
2021/04/04 09:05:11;;;;;;;15.14;6.13;;;;;;;14.31;39.71;100020.75;2014758;80;20725;-68
2021/04/04 09:08:15;;;;;;;14.11;5.57;;;;;;;14.60;38.70;100014.44;2015785;79;20194;-68
2021/04/04 09:11:18;;;;;;;11.81;5.29;;;;;;;14.49;38.19;100015.38;2016092;79;20188;-68
2021/04/04 09:14:23;;;;;;;15.59;5.70;;;;;;;14.57;37.72;100007.50;2016065;79;20854;-69
2021/04/04 09:17:25;;;;;;;13.15;4.79;;;;;;;14.47;37.22;100011.06;2015114;78;20829;-70
2021/04/04 09:20:36;;;;;;;49.28;29.16;;;;;;;14.57;38.56;100014.47;2016153;79;20192;-69
2021/04/04 09:23:38;;;;;;;13.66;5.51;;;;;;;14.46;36.80;100004.13;2015694;80;20188;-68
2021/04/04 09:26:40;;;;;;;14.25;5.40;;;;;;;14.40;35.24;100014.59;2016163;79;20223;-69
2021/04/04 09:29:45;;;;;;;15.46;4.68;;;;;;;14.35;35.55;100017.22;2016503;80;20171;-69
2021/04/04 09:32:51;;;;;;;15.46;6.82;;;;;;;14.54;38.03;100012.72;2015153;76;21063;-69
2021/04/04 09:35:59;;;;;;;13.15;4.66;;;;;;;14.82;37.13;100008.06;2013529;80;20220;-69
2021/04/04 09:39:02;;;;;;;16.10;4.79;;;;;;;15.02;36.44;100008.69;2013763;79;20237;-69
2021/04/04 09:42:05;;;;;;;13.06;5.18;;;;;;;15.27;36.00;100001.41;2014129;79;20185;-69
2021/04/04 09:45:19;;;;;;;11.68;4.41;;;;;;;15.31;33.65;99992.63;2012501;79;20273;-69
2021/04/04 09:48:23;;;;;;;8.43;4.00;;;;;;;15.28;34.27;99991.81;2013387;80;20204;-69
2021/04/04 09:51:25;;;;;;;9.71;4.07;;;;;;;15.19;35.08;99986.69;2014167;80;20394;-69
2021/04/04 09:54:27;;;;;;;10.80;4.13;;;;;;;15.33;34.47;99989.97;2013594;80;20180;-69
2021/04/04 09:57:37;;;;;;;9.32;3.88;;;;;;;15.35;33.93;99991.69;2013025;80;20523;-69
2021/04/04 10:00:44;;;;;;;13.74;4.25;;;;;;;15.26;33.25;99980.47;2012537;76;20910;-69
2021/04/04 10:04:05;;;;;;;11.44;3.60;;;;;;;15.50;35.52;99985.38;2013338;79;20292;-69
2021/04/04 10:07:07;;;;;;;9.51;3.24;;;;;;;15.67;34.61;99978.16;2013215;80;20207;-69
2021/04/04 10:10:09;;;;;;;8.51;3.39;;;;;;;15.61;33.91;99975.59;2013909;79;20219;-69
2021/04/04 10:13:11;;;;;;;11.60;3.31;;;;;;;15.48;32.66;99979.28;2013760;79;20722;-69
2021/04/04 10:16:20;;;;;;;12.98;4.46;;;;;;;14.98;33.71;99975.63;2012582;79;22360;-69
2021/04/04 10:19:22;;;;;;;;;;;;;;;14.81;33.80;99970.59;2014028;80;20191;-69
2021/04/04 10:22:24;;;;;;;8.53;3.81;;;;;;;14.55;34.29;99977.03;2013059;80;20857;-69
2021/04/04 10:25:25;;;;;;;8.85;3.20;;;;;;;14.20;34.51;99978.22;2012574;80;21146;-69
2021/04/04 10:28:48;;;;;;;8.70;2.92;;;;;;;13.85;34.99;99973.31;2014238;80;20229;-68
2021/04/04 10:31:50;;;;;;;7.11;2.38;;;;;;;14.08;34.78;99968.75;2013454;77;20181;-69
2021/04/04 10:34:52;;;;;;;5.54;2.56;;;;;;;14.58;33.80;99969.16;2014140;80;20213;-69
2021/04/04 10:38:09;;;;;;;8.95;2.81;;;;;;;14.66;33.74;99959.47;2014577;80;20588;-68
2021/04/04 10:41:24;;;;;;;7.51;2.53;;;;;;;15.36;34.76;99963.75;2014306;80;20223;-69
2021/04/04 10:44:27;;;;;;;8.24;2.49;;;;;;;15.65;33.64;99963.38;2015067;80;20168;-70
2021/04/04 10:47:29;;;;;;;8.57;3.39;;;;;;;16.05;33.34;99952.22;2013814;80;29050;-68
2021/04/04 10:50:31;;;;;;;7.10;2.29;;;;;;;16.26;32.07;99952.69;2015113;80;20205;-68
2021/04/04 10:53:34;;;;;;;9.54;3.15;;;;;;;16.29;30.62;99949.13;2014376;80;20188;-69
2021/04/04 10:56:36;;;;;;;9.44;3.10;;;;;;;16.43;30.20;99943.63;2015419;80;20222;-69
2021/04/04 10:59:39;;;;;;;6.71;2.63;;;;;;;16.35;30.11;99941.19;2014883;80;20184;-68
2021/04/04 11:02:42;;;;;;;7.09;2.71;;;;;;;16.38;30.85;99938.50;2013583;79;21978;-68
2021/04/04 11:05:46;;;;;;;8.14;2.97;;;;;;;16.54;31.21;99932.06;2014310;79;20271;-68
2021/04/04 11:08:47;;;;;;;10.21;2.60;;;;;;;16.86;31.58;99927.91;2014226;79;20206;-68
2021/04/04 11:11:54;;;;;;;12.89;2.54;;;;;;;16.74;29.89;99936.94;2014719;79;20197;-69
2021/04/04 11:14:57;;;;;;;8.25;3.25;;;;;;;16.42;30.64;99932.28;2014718;79;20164;-69
2021/04/04 11:18:04;;;;;;;8.40;3.06;;;;;;;16.39;30.51;99932.34;2015253;78;47513;-69
2021/04/04 11:21:13;;;;;;;7.26;2.64;;;;;;;16.47;30.62;99921.72;2015504;79;20180;-70
2021/04/04 11:24:16;;;;;;;8.07;3.20;;;;;;;16.83;30.89;99915.75;2015210;80;20533;-68
2021/04/04 11:27:18;;;;;;;7.06;2.59;;;;;;;16.90;29.40;99912.09;2016230;80;20172;-68
2021/04/04 11:30:29;;;;;;;6.66;2.54;;;;;;;17.05;30.42;99899.53;2015451;76;20199;-67
2021/04/04 11:33:31;;;;;;;9.71;3.50;;;;;;;17.09;29.31;99911.69;2015175;80;20209;-67
2021/04/04 11:36:36;;;;;;;11.19;3.56;;;;;;;17.15;30.11;99906.28;2015768;80;21167;-70
2021/04/04 11:39:40;;;;;;;8.07;3.16;;;;;;;16.93;29.69;99900.69;2016446;80;20219;-70
2021/04/04 11:42:42;;;;;;;8.19;3.34;;;;;;;17.14;30.90;99891.44;2015813;80;20572;-70
2021/04/04 11:45:45;;;;;;;12.88;3.33;;;;;;;17.24;29.53;99885.09;2014058;76;20893;-70
2021/04/04 11:48:46;;;;;;;5.96;3.09;;;;;;;17.15;29.90;99887.94;2016174;79;20200;-71
2021/04/04 11:51:48;;;;;;;10.93;3.49;;;;;;;17.34;28.89;99885.72;2015298;79;20184;-71
2021/04/04 11:54:55;;;;;;;9.48;3.03;;;;;;;17.28;28.91;99886.75;2015773;80;20201;-69
2021/04/04 11:57:57;;;;;;;7.51;3.33;;;;;;;17.29;29.04;99883.22;2016213;80;20205;-68
2021/04/04 12:00:59;;;;;;;8.35;3.56;;;;;;;17.11;28.31;99884.53;2013771;77;20934;-68
2021/04/04 12:04:44;;;;;;;7.11;3.29;;;;;;;17.21;28.98;99872.88;2014411;79;20175;-68
2021/04/04 12:07:49;;;;;;;8.31;3.56;;;;;;;17.50;28.11;99863.47;2014650;80;20209;-69
2021/04/04 12:10:50;;;;;;;6.81;3.64;;;;;;;17.39;28.67;99866.34;2014244;79;20183;-67
2021/04/04 12:13:59;;;;;;;7.85;3.80;;;;;;;17.39;27.76;99868.97;2013943;80;20175;-69
2021/04/04 12:17:04;;;;;;;11.57;3.96;;;;;;;17.15;29.56;99866.94;2013686;77;22043;-68
2021/04/04 12:20:08;;;;;;;10.82;3.97;;;;;;;17.13;29.46;99863.50;2014229;80;20189;-68
2021/04/04 12:23:15;;;;;;;9.50;3.70;;;;;;;17.75;29.05;99856.69;2014411;80;20197;-68
2021/04/04 12:26:18;;;;;;;8.90;4.53;;;;;;;17.89;29.36;99842.34;2015250;80;20180;-68
2021/04/04 12:29:20;;;;;;;8.45;4.15;;;;;;;17.71;27.74;99847.19;2015321;80;20183;-70
2021/04/04 12:32:32;;;;;;;7.85;3.97;;;;;;;17.86;28.79;99839.81;2010955;77;22009;-67
2021/04/04 12:35:46;;;;;;;8.39;3.47;;;;;;;17.84;27.57;99837.22;2011983;80;20211;-67
2021/04/04 12:38:50;;;;;;;7.74;3.38;;;;;;;17.53;28.49;99831.88;2016982;80;20193;-67
2021/04/04 12:41:53;;;;;;;11.38;3.83;;;;;;;17.47;29.31;99816.28;2014180;80;20204;-68
2021/04/04 12:44:55;;;;;;;10.02;3.72;;;;;;;17.83;27.09;99814.47;2013541;80;20641;-67
2021/04/04 12:47:57;;;;;;;9.73;3.33;;;;;;;17.78;28.19;99801.47;2012570;76;21337;-67
2021/04/04 12:51:02;;;;;;;11.34;4.05;;;;;;;18.03;28.36;99811.28;2014164;80;20234;-68
2021/04/04 12:54:04;;;;;;;10.95;4.57;;;;;;;17.64;27.17;99808.81;2014054;80;20168;-68
2021/04/04 12:57:06;;;;;;;9.56;4.61;;;;;;;17.45;28.00;99813.69;2013277;79;20220;-67
2021/04/04 13:00:18;;;;;;;7.94;3.86;;;;;;;17.33;27.62;99815.75;2013226;80;20183;-67
2021/04/04 13:03:20;;;;;;;9.81;3.88;;;;;;;17.40;29.57;99809.44;2012619;79;20846;-67
2021/04/04 13:06:22;;;;;;;8.15;3.80;;;;;;;17.46;29.01;99804.91;2013496;80;20321;-68
2021/04/04 13:09:23;;;;;;;8.29;3.90;;;;;;;17.67;28.27;99794.75;2012655;79;20192;-67
2021/04/04 13:12:25;;;;;;;8.07;3.51;;;;;;;17.75;28.65;99792.78;2013638;80;20176;-68
2021/04/04 13:15:29;;;;;;;7.16;3.17;;;;;;;17.89;27.38;99784.53;2012758;76;22072;-68
2021/04/04 13:18:36;;;;;;;7.54;3.80;;;;;;;17.93;28.80;99781.78;2013820;79;20243;-67
2021/04/04 13:21:39;;;;;;;11.42;4.01;;;;;;;17.72;28.39;99779.75;2014472;80;20176;-68
2021/04/04 13:24:41;;;;;;;9.91;4.50;;;;;;;17.85;27.90;99775.03;2013585;80;20547;-68
2021/04/04 13:27:46;;;;;;;6.97;3.50;;;;;;;17.69;28.22;99767.56;2014440;79;20203;-67
2021/04/04 13:30:48;;;;;;;9.98;4.43;;;;;;;17.56;27.84;99754.78;2012803;78;20629;-68
2021/04/04 13:34:19;;;;;;;10.34;4.04;;;;;;;17.69;27.39;99754.44;2013374;80;20191;-68
2021/04/04 13:37:22;;;;;;;6.85;3.20;;;;;;;17.56;27.60;99758.25;2013809;80;20719;-68
2021/04/04 13:40:26;;;;;;;7.46;3.29;;;;;;;17.86;28.54;99745.22;2013109;79;20197;-69
2021/04/04 13:43:27;;;;;;;9.34;3.75;;;;;;;18.11;28.06;99741.84;2013447;80;20167;-68
2021/04/04 13:46:38;;;;;;;9.44;3.64;;;;;;;18.06;26.87;99745.50;2011931;77;21025;-68
2021/04/04 13:49:40;;;;;;;10.21;3.55;;;;;;;18.06;27.79;99742.88;2013527;80;20253;-68
2021/04/04 13:52:41;;;;;;;12.16;4.20;;;;;;;18.06;27.63;99746.38;2012831;79;20260;-65
2021/04/04 13:55:43;;;;;;;9.36;3.72;;;;;;;17.93;28.66;99734.47;2012700;80;20187;-66
2021/04/04 13:58:48;;;;;;;9.61;3.95;;;;;;;17.86;28.03;99735.56;2013420;80;20557;-68
2021/04/04 14:01:55;;;;;;;7.11;3.88;;;;;;;17.72;27.93;99738.59;2012158;77;20667;-67
2021/04/04 14:04:57;;;;;;;9.51;3.78;;;;;;;17.70;29.02;99731.66;2014234;79;20665;-68
2021/04/04 14:08:05;;;;;;;10.01;3.96;;;;;;;17.85;28.51;99727.75;2014142;80;20496;-66
2021/04/04 14:11:11;;;;;;;7.79;3.54;;;;;;;18.01;28.43;99732.50;2013558;79;20215;-67
2021/04/04 14:14:13;;;;;;;9.99;3.79;;;;;;;17.84;28.92;99723.41;2014058;80;20179;-67
2021/04/04 14:17:15;;;;;;;8.30;4.59;;;;;;;17.89;28.70;99719.72;2013739;77;21015;-67
2021/04/04 14:20:17;;;;;;;6.88;3.26;;;;;;;17.76;27.70;99713.09;2014811;80;20206;-67
2021/04/04 14:23:18;;;;;;;6.35;3.65;;;;;;;17.79;28.72;99718.28;2014484;80;20196;-68
2021/04/04 14:26:21;;;;;;;11.60;3.91;;;;;;;17.75;27.58;99706.13;2014003;79;20191;-68
2021/04/04 14:29:23;;;;;;;10.90;4.50;;;;;;;17.68;27.18;99701.94;2014230;80;20164;-67
2021/04/04 14:32:25;;;;;;;11.65;4.35;;;;;;;17.72;27.64;99690.44;2013498;77;21867;-68
2021/04/04 14:35:31;;;;;;;11.31;4.10;;;;;;;17.60;27.56;99693.41;2016624;80;20208;-67
2021/04/04 14:38:33;;;;;;;9.34;3.66;;;;;;;17.55;28.26;99687.41;2014400;79;21051;-68